| time (UTC) | temp C | wind direction | speed KPH | gust KPH | rain 1hr cm | rain 24hr cm | rain mn cm | humidity % | barometer mb |
| 20260506222308 | 22 | 332 | 8.0 | 11.3 | 0.00 | 0.00 | 0.00 | 56 | 1018.4 |
| 20260506221808 | 22 | 344 | 8.0 | 12.9 | 0.00 | 0.00 | 0.00 | 54 | 1018.5 |
| 20260506221307 | 22 | 20 | 6.4 | 8.0 | 0.00 | 0.00 | 0.00 | 55 | 1018.5 |
| 20260506220809 | 22 | 6 | 4.8 | 8.0 | 0.00 | 0.00 | 0.00 | 53 | 1018.5 |
| 20260506220307 | 22 | 3 | 6.4 | 12.9 | 0.00 | 0.00 | 0.00 | 52 | 1018.6 |
| 20260506215809 | 22 | 26 | 8.0 | 9.7 | 0.00 | 0.00 | 0.00 | 53 | 1018.7 |
| 20260506215307 | 22 | 27 | 8.0 | 11.3 | 0.00 | 0.00 | 0.00 | 53 | 1018.7 |
| 20260506214807 | 22 | 347 | 9.7 | 11.3 | 0.00 | 0.00 | 0.00 | 53 | 1018.8 |
| 20260506214309 | 22 | 321 | 6.4 | 11.3 | 0.00 | 0.00 | 0.00 | 52 | 1018.9 |
| 20260506213807 | 22 | 281 | 4.8 | 8.0 | 0.00 | 0.00 | 0.00 | 52 | 1018.9 |
| 20260506213309 | 22 | 288 | 4.8 | 8.0 | 0.00 | 0.00 | 0.00 | 52 | 1019.0 |
| 20260506212808 | 22 | 331 | 4.8 | 8.0 | 0.00 | 0.00 | 0.00 | 52 | 1019.0 |
| 20260506212307 | 21 | 273 | 3.2 | 4.8 | 0.00 | 0.00 | 0.00 | 53 | 1019.1 |
| 20260506211807 | 21 | 344 | 8.0 | 12.9 | 0.00 | 0.00 | 0.00 | 54 | 1019.2 |
| 20260506211309 | 21 | 55 | 6.4 | 8.0 | 0.00 | 0.00 | 0.00 | 55 | 1019.2 |
| 20260506210808 | 21 | 43 | 8.0 | 12.9 | 0.00 | 0.00 | 0.00 | 54 | 1019.2 |
| 20260506210307 | 21 | 283 | 4.8 | 8.0 | 0.00 | 0.00 | 0.00 | 56 | 1019.3 |
| 20260506205808 | 21 | 2 | 4.8 | 6.4 | 0.00 | 0.00 | 0.00 | 56 | 1019.3 |
| 20260506205308 | 21 | 16 | 8.0 | 11.3 | 0.00 | 0.00 | 0.00 | 55 | 1019.3 |
| 20260506204808 | 21 | 12 | 6.4 | 8.0 | 0.00 | 0.00 | 0.00 | 55 | 1019.4 |
| 20260506204308 | 20 | 46 | 1.6 | 6.4 | 0.00 | 0.00 | 0.00 | 57 | 1019.5 |
| 20260506203808 | 21 | 315 | 6.4 | 11.3 | 0.00 | 0.00 | 0.00 | 57 | 1019.5 |
| 20260506203308 | 20 | 296 | 1.6 | 3.2 | 0.00 | 0.00 | 0.00 | 57 | 1019.6 |
| 20260506202807 | 20 | 312 | 4.8 | 8.0 | 0.00 | 0.00 | 0.00 | 58 | 1019.6 |
| 20260506202308 | 20 | 331 | 4.8 | 9.7 | 0.00 | 0.00 | 0.00 | 58 | 1019.7 |
| 20260506201808 | 20 | 31 | 3.2 | 9.7 | 0.00 | 0.00 | 0.00 | 58 | 1019.8 |
| 20260506201307 | 20 | 354 | 8.0 | 9.7 | 0.00 | 0.00 | 0.00 | 58 | 1019.8 |
| 20260506200807 | 20 | 336 | 4.8 | 9.7 | 0.00 | 0.00 | 0.00 | 60 | 1019.8 |
| 20260506200307 | 20 | 282 | 8.0 | 11.3 | 0.00 | 0.00 | 0.00 | 59 | 1019.9 |
| 20260506195807 | 20 | 283 | 4.8 | 9.7 | 0.00 | 0.00 | 0.00 | 59 | 1019.9 |
| 20260506195307 | 20 | 275 | 3.2 | 4.8 | 0.00 | 0.00 | 0.00 | 61 | 1019.9 |
| 20260506194807 | 20 | 345 | 4.8 | 9.7 | 0.00 | 0.00 | 0.00 | 60 | 1019.9 |
| 20260506194308 | 20 | 292 | 4.8 | 6.4 | 0.00 | 0.00 | 0.00 | 60 | 1020.0 |
| 20260506193807 | 20 | 26 | 3.2 | 6.4 | 0.00 | 0.00 | 0.00 | 61 | 1020.1 |
| 20260506193308 | 20 | 313 | 6.4 | 9.7 | 0.00 | 0.00 | 0.00 | 60 | 1020.1 |
| 20260506192808 | 19 | 91 | 1.6 | 3.2 | 0.00 | 0.00 | 0.00 | 62 | 1020.1 |
| 20260506192307 | 19 | 7 | 8.0 | 12.9 | 0.00 | 0.00 | 0.00 | 62 | 1020.1 |
| 20260506191809 | 19 | 353 | 3.2 | 6.4 | 0.00 | 0.00 | 0.00 | 62 | 1020.2 |
| 20260506191308 | 19 | 339 | 3.2 | 6.4 | 0.00 | 0.00 | 0.00 | 62 | 1020.2 |
| 20260506190811 | 18 | 61 | 4.8 | 12.9 | 0.00 | 0.00 | 0.00 | 64 | 1020.2 |
| 20260506190310 | 18 | 288 | 6.4 | 8.0 | 0.00 | 0.00 | 0.00 | 64 | 1020.3 |
| 20260506185808 | 18 | 73 | 8.0 | 11.3 | 0.00 | 0.00 | 0.00 | 65 | 1020.3 |
| 20260506185307 | 18 | 19 | 6.4 | 9.7 | 0.00 | 0.00 | 0.00 | 65 | 1020.3 |
| 20260506184808 | 18 | 34 | 1.6 | 4.8 | 0.00 | 0.00 | 0.00 | 65 | 1020.3 |
| 20260506184311 | 18 | 358 | 3.2 | 4.8 | 0.00 | 0.00 | 0.00 | 64 | 1020.4 |
| 20260506183810 | 18 | 148 | 3.2 | 6.4 | 0.00 | 0.00 | 0.00 | 65 | 1020.4 |
| 20260506183308 | 18 | 290 | 6.4 | 9.7 | 0.00 | 0.00 | 0.00 | 66 | 1020.5 |
| 20260506182808 | 18 | 189 | 1.6 | 3.2 | 0.00 | 0.00 | 0.00 | 64 | 1020.5 |
| 20260506182310 | 18 | 293 | 4.8 | 9.7 | 0.00 | 0.00 | 0.00 | 64 | 1020.6 |
| 20260506181807 | 17 | 91 | 1.6 | 3.2 | 0.00 | 0.00 | 0.00 | 67 | 1020.6 |
| 20260506181307 | 17 | 37 | 4.8 | 8.0 | 0.00 | 0.00 | 0.00 | 68 | 1020.6 |
| 20260506180808 | 17 | 69 | 4.8 | 8.0 | 0.00 | 0.00 | 0.00 | 68 | 1020.5 |
| 20260506180309 | 17 | 7 | 3.2 | 8.0 | 0.00 | 0.00 | 0.00 | 69 | 1020.6 |
| 20260506175807 | 17 | 51 | 6.4 | 9.7 | 0.00 | 0.00 | 0.00 | 68 | 1020.6 |
| 20260506175308 | 17 | 206 | 6.4 | 8.0 | 0.00 | 0.00 | 0.00 | 69 | 1020.6 |
| 20260506174808 | 17 | 291 | 3.2 | 4.8 | 0.00 | 0.00 | 0.00 | 69 | 1020.7 |
| 20260506174308 | 17 | 330 | 1.6 | 4.8 | 0.00 | 0.00 | 0.00 | 69 | 1020.6 |
| 20260506173808 | 17 | 183 | 1.6 | 3.2 | 0.00 | 0.00 | 0.00 | 69 | 1020.7 |
| 20260506173308 | 17 | 222 | 1.6 | 3.2 | 0.00 | 0.00 | 0.00 | 69 | 1020.7 |
| 20260506172807 | 16 | 269 | 3.2 | 4.8 | 0.00 | 0.00 | 0.00 | 71 | 1020.7 |
| 20260506172308 | 16 | 54 | 0.0 | 3.2 | 0.00 | 0.00 | 0.00 | 73 | 1020.7 |
| 20260506171808 | 16 | 233 | 3.2 | 4.8 | 0.00 | 0.00 | 0.00 | 74 | 1020.7 |
| 20260506171308 | 16 | 335 | 3.2 | 6.4 | 0.00 | 0.00 | 0.00 | 74 | 1020.8 |
| 20260506170808 | 15 | 258 | 3.2 | 4.8 | 0.00 | 0.00 | 0.00 | 74 | 1020.8 |
| 20260506170307 | 15 | 258 | 3.2 | 4.8 | 0.00 | 0.00 | 0.00 | 74 | 1020.8 |
| 20260506165807 | 15 | 255 | 3.2 | 6.4 | 0.00 | 0.00 | 0.00 | 75 | 1020.8 |
| 20260506165308 | 16 | 323 | 0.0 | 3.2 | 0.00 | 0.00 | 0.00 | 74 | 1020.8 |
| 20260506164807 | 15 | 238 | 0.0 | 1.6 | 0.00 | 0.00 | 0.00 | 75 | 1020.8 |
| 20260506164309 | 15 | 169 | 1.6 | 3.2 | 0.00 | 0.00 | 0.00 | 76 | 1020.8 |
| 20260506163807 | 15 | 326 | 1.6 | 4.8 | 0.00 | 0.00 | 0.00 | 77 | 1020.8 |
| 20260506163307 | 15 | 264 | 1.6 | 4.8 | 0.00 | 0.00 | 0.00 | 77 | 1020.8 |
| 20260506162808 | 15 | 354 | 1.6 | 4.8 | 0.00 | 0.00 | 0.00 | 77 | 1020.8 |
| 20260506162308 | 15 | 305 | 3.2 | 6.4 | 0.00 | 0.00 | 0.00 | 76 | 1020.7 |
| 20260506161808 | 15 | 316 | 1.6 | 4.8 | 0.00 | 0.00 | 0.00 | 79 | 1020.8 |
| 20260506161308 | 15 | 268 | 3.2 | 4.8 | 0.00 | 0.00 | 0.00 | 79 | 1020.8 |
| 20260506160809 | 15 | 346 | 3.2 | 4.8 | 0.00 | 0.00 | 0.00 | 80 | 1020.8 |
| 20260506160310 | 15 | 281 | 4.8 | 9.7 | 0.00 | 0.00 | 0.00 | 79 | 1020.8 |
| 20260506155812 | 15 | 339 | 3.2 | 4.8 | 0.00 | 0.00 | 0.00 | 79 | 1020.8 |
| 20260506155308 | 14 | 303 | 1.6 | 3.2 | 0.00 | 0.00 | 0.00 | 80 | 1020.8 |
| 20260506154807 | 14 | 335 | 3.2 | 4.8 | 0.00 | 0.00 | 0.00 | 81 | 1020.8 |
| 20260506154308 | 14 | 251 | 0.0 | 0.0 | 0.00 | 0.00 | 0.00 | 81 | 1020.7 |
| 20260506153811 | 14 | 341 | 1.6 | 4.8 | 0.00 | 0.00 | 0.00 | 82 | 1020.7 |
| 20260506153312 | 14 | 254 | 1.6 | 3.2 | 0.00 | 0.00 | 0.00 | 82 | 1020.8 |
| 20260506152808 | 13 | 320 | 0.0 | 1.6 | 0.00 | 0.00 | 0.00 | 82 | 1020.8 |
| 20260506152307 | 13 | 264 | 3.2 | 4.8 | 0.00 | 0.00 | 0.00 | 82 | 1020.7 |
| 20260506151808 | 13 | 280 | 3.2 | 6.4 | 0.00 | 0.00 | 0.00 | 82 | 1020.7 |
| 20260506151308 | 13 | 22 | 0.0 | 1.6 | 0.00 | 0.00 | 0.00 | 83 | 1020.7 |
| 20260506150808 | 13 | 288 | 1.6 | 3.2 | 0.00 | 0.00 | 0.00 | 83 | 1020.7 |
| 20260506150312 | 13 | 286 | 1.6 | 3.2 | 0.00 | 0.00 | 0.00 | 83 | 1020.8 |
| 20260506145809 | 13 | 296 | 1.6 | 3.2 | 0.00 | 0.00 | 0.00 | 84 | 1020.8 |
| 20260506145308 | 13 | 307 | 0.0 | 1.6 | 0.00 | 0.00 | 0.00 | 84 | 1020.7 |
| 20260506144807 | 13 | 285 | 1.6 | 3.2 | 0.00 | 0.00 | 0.00 | 84 | 1020.8 |
| 20260506144308 | 13 | 242 | 1.6 | 3.2 | 0.00 | 0.00 | 0.00 | 84 | 1020.7 |
| 20260506143807 | 13 | 246 | 1.6 | 3.2 | 0.00 | 0.00 | 0.00 | 84 | 1020.7 |
| 20260506143312 | 13 | 281 | 3.2 | 4.8 | 0.00 | 0.00 | 0.00 | 84 | 1020.6 |
| 20260506142808 | 13 | 270 | 1.6 | 3.2 | 0.00 | 0.00 | 0.00 | 85 | 1020.6 |
| 20260506142308 | 13 | 289 | 1.6 | 4.8 | 0.00 | 0.00 | 0.00 | 85 | 1020.7 |
| 20260506141808 | 13 | 283 | 3.2 | 6.4 | 0.00 | 0.00 | 0.00 | 85 | 1020.6 |
| 20260506141307 | 13 | 280 | 1.6 | 3.2 | 0.00 | 0.00 | 0.00 | 85 | 1020.5 |
| 20260506140808 | 13 | 279 | 3.2 | 3.2 | 0.00 | 0.00 | 0.00 | 85 | 1020.5 |
| 20260506140311 | 13 | 270 | 0.0 | 1.6 | 0.00 | 0.00 | 0.00 | 85 | 1020.5 |
| 20260506135807 | 13 | 274 | 3.2 | 6.4 | 0.00 | 0.00 | 0.00 | 85 | 1020.4 |
| 20260506135308 | 13 | 273 | 1.6 | 3.2 | 0.00 | 0.00 | 0.00 | 85 | 1020.3 |
| 20260506134808 | 13 | 271 | 0.0 | 3.2 | 0.00 | 0.00 | 0.00 | 85 | 1020.2 |
| 20260506134309 | 13 | 278 | 3.2 | 4.8 | 0.00 | 0.00 | 0.00 | 85 | 1020.2 |
| 20260506133808 | 13 | 288 | 1.6 | 3.2 | 0.00 | 0.00 | 0.00 | 85 | 1020.1 |
| 20260506133313 | 13 | 253 | 1.6 | 3.2 | 0.00 | 0.00 | 0.00 | 86 | 1020.0 |
| 20260506132809 | 13 | 288 | 3.2 | 3.2 | 0.00 | 0.00 | 0.00 | 86 | 1020.0 |
| 20260506132308 | 13 | 266 | 1.6 | 3.2 | 0.00 | 0.00 | 0.00 | 86 | 1019.9 |
| 20260506131808 | 13 | 282 | 1.6 | 3.2 | 0.00 | 0.00 | 0.00 | 86 | 1019.9 |
| 20260506131308 | 13 | 274 | 3.2 | 4.8 | 0.00 | 0.00 | 0.00 | 86 | 1019.9 |
| 20260506130808 | 13 | 277 | 3.2 | 3.2 | 0.00 | 0.00 | 0.00 | 86 | 1019.9 |
| 20260506130311 | 13 | 250 | 1.6 | 3.2 | 0.00 | 0.00 | 0.00 | 85 | 1019.8 |
| 20260506125807 | 13 | 287 | 1.6 | 3.2 | 0.00 | 0.00 | 0.00 | 85 | 1019.8 |
| 20260506125308 | 13 | 292 | 1.6 | 4.8 | 0.00 | 0.00 | 0.00 | 85 | 1019.7 |
| 20260506124346 | 13 | 286 | 3.2 | 6.4 | 0.00 | 0.00 | 0.00 | 85 | 1019.7 |
| 20260506123808 | 13 | 69 | 0.0 | 0.0 | 0.00 | 0.00 | 0.00 | 85 | 1019.6 |
| 20260506123307 | 13 | 304 | 1.6 | 3.2 | 0.00 | 0.00 | 0.00 | 86 | 1019.6 |
| 20260506122808 | 13 | 196 | 0.0 | 0.0 | 0.00 | 0.00 | 0.00 | 85 | 1019.7 |
| 20260506122307 | 13 | 256 | 1.6 | 3.2 | 0.00 | 0.00 | 0.00 | 85 | 1019.7 |
| 20260506121807 | 13 | 303 | 0.0 | 3.2 | 0.00 | 0.00 | 0.00 | 85 | 1019.7 |
| 20260506121308 | 13 | 284 | 1.6 | 3.2 | 0.00 | 0.00 | 0.00 | 85 | 1019.6 |
| 20260506120807 | 13 | 327 | 0.0 | 1.6 | 0.00 | 0.00 | 0.00 | 85 | 1019.6 |
| 20260506120308 | 13 | 245 | 0.0 | 1.6 | 0.00 | 0.00 | 0.00 | 85 | 1019.5 |
| 20260506115807 | 13 | 277 | 3.2 | 4.8 | 0.00 | 0.00 | 0.00 | 85 | 1019.5 |
| 20260506115307 | 13 | 274 | 1.6 | 3.2 | 0.00 | 0.00 | 0.00 | 85 | 1019.5 |
| 20260506114809 | 13 | 270 | 3.2 | 4.8 | 0.00 | 0.00 | 0.00 | 85 | 1019.5 |
| 20260506114308 | 13 | 279 | 1.6 | 1.6 | 0.00 | 0.00 | 0.00 | 85 | 1019.4 |
| 20260506113808 | 13 | 289 | 1.6 | 3.2 | 0.00 | 0.00 | 0.00 | 85 | 1019.4 |
| 20260506113307 | 13 | 271 | 1.6 | 3.2 | 0.00 | 0.00 | 0.00 | 85 | 1019.4 |
| 20260506112808 | 13 | 238 | 1.6 | 3.2 | 0.00 | 0.00 | 0.00 | 85 | 1019.3 |
| 20260506112308 | 13 | 271 | 1.6 | 3.2 | 0.00 | 0.00 | 0.00 | 85 | 1019.3 |
| 20260506111809 | 13 | 269 | 1.6 | 3.2 | 0.00 | 0.00 | 0.00 | 85 | 1019.3 |
| 20260506111308 | 13 | 300 | 1.6 | 1.6 | 0.00 | 0.00 | 0.00 | 85 | 1019.3 |
| 20260506110807 | 13 | 308 | 0.0 | 1.6 | 0.00 | 0.00 | 0.00 | 85 | 1019.3 |
| 20260506110309 | 13 | 309 | 3.2 | 4.8 | 0.00 | 0.00 | 0.00 | 85 | 1019.2 |
| 20260506105807 | 13 | 332 | 1.6 | 3.2 | 0.00 | 0.00 | 0.00 | 86 | 1019.2 |
| 20260506105308 | 13 | 330 | 0.0 | 3.2 | 0.00 | 0.00 | 0.00 | 86 | 1019.2 |
| 20260506104807 | 13 | 250 | 0.0 | 1.6 | 0.00 | 0.00 | 0.00 | 85 | 1019.1 |
| 20260506104307 | 13 | 253 | 0.0 | 1.6 | 0.00 | 0.00 | 0.00 | 85 | 1019.1 |
| 20260506103808 | 13 | 322 | 1.6 | 1.6 | 0.00 | 0.00 | 0.00 | 85 | 1019.1 |
| 20260506103308 | 13 | 299 | 1.6 | 1.6 | 0.00 | 0.00 | 0.00 | 85 | 1019.1 |
| 20260506102342 | 13 | 302 | 0.0 | 1.6 | 0.00 | 0.00 | 0.00 | 84 | 1019.1 |
| 20260506101807 | 13 | 265 | 0.0 | 1.6 | 0.00 | 0.00 | 0.00 | 84 | 1019.1 |
| 20260506101307 | 13 | 310 | 0.0 | 3.2 | 0.00 | 0.00 | 0.00 | 84 | 1019.1 |
| 20260506100807 | 13 | 340 | 0.0 | 1.6 | 0.00 | 0.00 | 0.00 | 84 | 1019.2 |
| 20260506100308 | 13 | 304 | 0.0 | 3.2 | 0.00 | 0.00 | 0.00 | 84 | 1019.1 |
| 20260506095808 | 13 | 323 | 0.0 | 3.2 | 0.00 | 0.00 | 0.00 | 84 | 1019.1 |
| 20260506095309 | 13 | 259 | 3.2 | 3.2 | 0.00 | 0.00 | 0.00 | 84 | 1019.1 |
| 20260506094807 | 13 | 313 | 0.0 | 1.6 | 0.00 | 0.00 | 0.00 | 83 | 1019.1 |
| 20260506094307 | 13 | 288 | 1.6 | 3.2 | 0.00 | 0.00 | 0.00 | 83 | 1019.1 |
| 20260506093807 | 13 | 302 | 0.0 | 1.6 | 0.00 | 0.00 | 0.00 | 83 | 1019.1 |
| 20260506093308 | 13 | 0 | 0.0 | 0.0 | 0.00 | 0.00 | 0.00 | 83 | 1019.1 |
| 20260506092807 | 13 | 4 | 1.6 | 3.2 | 0.00 | 0.00 | 0.00 | 83 | 1019.2 |
| 20260506092308 | 13 | 2 | 0.0 | 0.0 | 0.00 | 0.00 | 0.00 | 83 | 1019.2 |
| 20260506091807 | 13 | 348 | 3.2 | 4.8 | 0.00 | 0.00 | 0.00 | 83 | 1019.2 |
| 20260506091307 | 13 | 354 | 1.6 | 3.2 | 0.00 | 0.00 | 0.00 | 83 | 1019.2 |
| 20260506090808 | 13 | 27 | 0.0 | 1.6 | 0.00 | 0.00 | 0.00 | 83 | 1019.1 |
| 20260506090310 | 13 | 324 | 0.0 | 1.6 | 0.00 | 0.00 | 0.00 | 83 | 1019.1 |
| 20260506085807 | 13 | 236 | 0.0 | 1.6 | 0.00 | 0.00 | 0.00 | 83 | 1019.0 |
| 20260506085308 | 13 | 0 | 0.0 | 0.0 | 0.00 | 0.00 | 0.00 | 82 | 1019.0 |
| 20260506084808 | 13 | 249 | 1.6 | 3.2 | 0.00 | 0.00 | 0.00 | 82 | 1019.1 |
| 20260506084307 | 13 | 315 | 0.0 | 1.6 | 0.00 | 0.00 | 0.00 | 82 | 1019.1 |
| 20260506083808 | 13 | 3 | 1.6 | 3.2 | 0.00 | 0.00 | 0.00 | 82 | 1019.1 |
| 20260506083307 | 13 | 286 | 1.6 | 4.8 | 0.00 | 0.00 | 0.00 | 82 | 1019.1 |
| 20260506082808 | 13 | 312 | 1.6 | 3.2 | 0.00 | 0.00 | 0.00 | 82 | 1019.1 |
| 20260506082308 | 13 | 315 | 0.0 | 1.6 | 0.00 | 0.00 | 0.00 | 82 | 1019.2 |
| 20260506081808 | 13 | 287 | 0.0 | 0.0 | 0.00 | 0.00 | 0.00 | 82 | 1019.2 |
| 20260506081308 | 13 | 331 | 0.0 | 1.6 | 0.00 | 0.00 | 0.00 | 82 | 1019.2 |
| 20260506080808 | 13 | 301 | 1.6 | 3.2 | 0.00 | 0.00 | 0.00 | 82 | 1019.2 |
| 20260506080311 | 13 | 322 | 0.0 | 3.2 | 0.00 | 0.00 | 0.00 | 82 | 1019.1 |
| 20260506073308 | 14 | 314 | 1.6 | 3.2 | 0.00 | 0.00 | 0.00 | 80 | 1018.9 |
| 20260506072807 | 14 | 339 | 1.6 | 4.8 | 0.00 | 0.00 | 0.00 | 80 | 1018.9 |
| 20260506072307 | 14 | 9 | 0.0 | 1.6 | 0.00 | 0.00 | 0.00 | 80 | 1018.8 |
| 20260506071807 | 14 | 310 | 0.0 | 1.6 | 0.00 | 0.00 | 0.00 | 80 | 1018.8 |
| 20260506071307 | 14 | 357 | 3.2 | 6.4 | 0.00 | 0.00 | 0.00 | 80 | 1018.8 |
| 20260506070807 | 14 | 9 | 0.0 | 1.6 | 0.00 | 0.00 | 0.00 | 80 | 1018.7 |
| 20260506070308 | 14 | 18 | 1.6 | 3.2 | 0.00 | 0.00 | 0.00 | 80 | 1018.7 |
| 20260506062308 | 14 | 350 | 3.2 | 6.4 | 0.00 | 0.00 | 0.03 | 78 | 1018.5 |
| 20260506061807 | 14 | 8 | 4.8 | 8.0 | 0.00 | 0.00 | 0.03 | 78 | 1018.5 |
| 20260506061308 | 14 | 357 | 1.6 | 6.4 | 0.00 | 0.00 | 0.03 | 78 | 1018.4 |
| 20260506060809 | 14 | 343 | 3.2 | 4.8 | 0.00 | 0.00 | 0.03 | 78 | 1018.3 |
| 20260506060307 | 14 | 6 | 6.4 | 9.7 | 0.00 | 0.00 | 0.03 | 77 | 1018.3 |
| 20260506051308 | 15 | 359 | 1.6 | 3.2 | 0.00 | 0.00 | 0.03 | 75 | 1018.1 |
| 20260506050808 | 15 | 326 | 1.6 | 3.2 | 0.00 | 0.00 | 0.03 | 76 | 1018.0 |
| 20260506050308 | 15 | 356 | 3.2 | 4.8 | 0.00 | 0.00 | 0.03 | 75 | 1017.9 |
| 20260506044808 | 15 | 329 | 3.2 | 6.4 | 0.00 | 0.00 | 0.03 | 75 | 1017.8 |
| 20260506044308 | 15 | 350 | 1.6 | 3.2 | 0.00 | 0.00 | 0.03 | 74 | 1017.7 |
| 20260506043808 | 15 | 346 | 3.2 | 6.4 | 0.00 | 0.00 | 0.03 | 74 | 1017.7 |
| 20260506043309 | 15 | 340 | 1.6 | 3.2 | 0.00 | 0.00 | 0.03 | 74 | 1017.7 |
| 20260506042807 | 15 | 352 | 1.6 | 4.8 | 0.00 | 0.00 | 0.03 | 74 | 1017.7 |
| 20260506042308 | 15 | 32 | 6.4 | 8.0 | 0.00 | 0.00 | 0.03 | 73 | 1017.6 |
| 20260506041808 | 15 | 355 | 1.6 | 3.2 | 0.00 | 0.00 | 0.03 | 73 | 1017.6 |
| 20260506041307 | 15 | 336 | 1.6 | 4.8 | 0.00 | 0.00 | 0.03 | 73 | 1017.5 |
| 20260506040807 | 15 | 288 | 1.6 | 3.2 | 0.00 | 0.00 | 0.03 | 73 | 1017.4 |
| 20260506040308 | 15 | 295 | 3.2 | 4.8 | 0.00 | 0.00 | 0.03 | 73 | 1017.3 |
| 20260506035807 | 15 | 242 | 1.6 | 4.8 | 0.00 | 0.00 | 0.03 | 72 | 1017.2 |
| 20260506035308 | 15 | 270 | 3.2 | 6.4 | 0.00 | 0.00 | 0.03 | 72 | 1017.2 |
| 20260506034808 | 15 | 272 | 3.2 | 3.2 | 0.00 | 0.00 | 0.03 | 72 | 1017.2 |
| 20260506034307 | 15 | 273 | 3.2 | 4.8 | 0.00 | 0.00 | 0.03 | 72 | 1017.1 |
| 20260506033808 | 15 | 264 | 1.6 | 3.2 | 0.00 | 0.00 | 0.03 | 72 | 1017.0 |
| 20260506033308 | 15 | 261 | 1.6 | 3.2 | 0.00 | 0.00 | 0.03 | 72 | 1017.0 |
| 20260506032807 | 15 | 317 | 1.6 | 3.2 | 0.00 | 0.00 | 0.03 | 71 | 1016.9 |
| 20260506032308 | 15 | 285 | 4.8 | 6.4 | 0.00 | 0.00 | 0.03 | 71 | 1016.8 |
| 20260506031807 | 15 | 295 | 3.2 | 4.8 | 0.00 | 0.00 | 0.03 | 72 | 1016.8 |
| 20260506031307 | 15 | 311 | 1.6 | 3.2 | 0.00 | 0.00 | 0.03 | 72 | 1016.8 |
| 20260506030808 | 15 | 269 | 1.6 | 3.2 | 0.00 | 0.00 | 0.03 | 72 | 1016.7 |
| 20260506030307 | 15 | 311 | 1.6 | 3.2 | 0.00 | 0.00 | 0.03 | 72 | 1016.7 |
| 20260506025808 | 15 | 337 | 3.2 | 6.4 | 0.00 | 0.00 | 0.03 | 73 | 1016.6 |
| 20260506025307 | 15 | 268 | 1.6 | 4.8 | 0.00 | 0.00 | 0.03 | 72 | 1016.6 |
| 20260506024807 | 15 | 308 | 1.6 | 3.2 | 0.00 | 0.00 | 0.03 | 73 | 1016.5 |
| 20260506024308 | 15 | 293 | 1.6 | 3.2 | 0.00 | 0.00 | 0.03 | 73 | 1016.4 |
| 20260506023807 | 15 | 307 | 1.6 | 3.2 | 0.00 | 0.00 | 0.03 | 72 | 1016.4 |
| 20260506023307 | 15 | 320 | 0.0 | 3.2 | 0.00 | 0.00 | 0.03 | 72 | 1016.3 |
| 20260506022809 | 15 | 274 | 3.2 | 4.8 | 0.00 | 0.00 | 0.03 | 72 | 1016.3 |
| 20260506022308 | 15 | 292 | 1.6 | 4.8 | 0.00 | 0.00 | 0.03 | 72 | 1016.3 |
| 20260506021807 | 15 | 284 | 3.2 | 6.4 | 0.00 | 0.00 | 0.03 | 71 | 1016.3 |
| 20260506021307 | 15 | 291 | 1.6 | 4.8 | 0.00 | 0.00 | 0.03 | 72 | 1016.2 |
| 20260506020810 | 15 | 289 | 3.2 | 6.4 | 0.00 | 0.00 | 0.03 | 72 | 1016.2 |
| 20260506020307 | 15 | 274 | 3.2 | 4.8 | 0.00 | 0.00 | 0.03 | 72 | 1016.3 |
| 20260506015807 | 15 | 275 | 0.0 | 3.2 | 0.00 | 0.00 | 0.03 | 72 | 1016.3 |
| 20260506015307 | 15 | 298 | 1.6 | 3.2 | 0.00 | 0.00 | 0.03 | 72 | 1016.3 |
| 20260506014807 | 15 | 288 | 3.2 | 4.8 | 0.00 | 0.00 | 0.03 | 72 | 1016.3 |
| 20260506014308 | 15 | 270 | 1.6 | 3.2 | 0.00 | 0.00 | 0.03 | 72 | 1016.4 |
| 20260506013807 | 15 | 261 | 1.6 | 3.2 | 0.00 | 0.00 | 0.03 | 72 | 1016.4 |
| 20260506013308 | 15 | 302 | 3.2 | 4.8 | 0.00 | 0.00 | 0.03 | 72 | 1016.4 |
| 20260506012807 | 15 | 310 | 3.2 | 6.4 | 0.00 | 0.00 | 0.03 | 72 | 1016.3 |
| 20260506012308 | 15 | 284 | 1.6 | 3.2 | 0.00 | 0.00 | 0.03 | 72 | 1016.3 |
| 20260506011808 | 15 | 279 | 3.2 | 4.8 | 0.00 | 0.00 | 0.03 | 72 | 1016.2 |
| 20260506011307 | 15 | 292 | 3.2 | 4.8 | 0.00 | 0.00 | 0.03 | 71 | 1016.3 |
| 20260506010808 | 15 | 274 | 3.2 | 8.0 | 0.00 | 0.00 | 0.03 | 71 | 1016.2 |
| 20260506010308 | 15 | 276 | 1.6 | 4.8 | 0.00 | 0.00 | 0.03 | 71 | 1016.2 |
| 20260506005808 | 15 | 292 | 3.2 | 6.4 | 0.00 | 0.00 | 0.03 | 71 | 1016.2 |
| 20260506005308 | 16 | 282 | 3.2 | 6.4 | 0.00 | 0.00 | 0.03 | 71 | 1016.2 |
| 20260506004807 | 16 | 220 | 0.0 | 3.2 | 0.00 | 0.00 | 0.03 | 72 | 1016.2 |
| 20260506004308 | 16 | 255 | 3.2 | 6.4 | 0.00 | 0.00 | 0.03 | 72 | 1016.2 |
| 20260506003808 | 16 | 291 | 4.8 | 11.3 | 0.00 | 0.00 | 0.03 | 72 | 1016.2 |
| 20260506003309 | 16 | 305 | 6.4 | 11.3 | 0.00 | 0.00 | 0.03 | 72 | 1016.2 |
| 20260506002808 | 16 | 279 | 4.8 | 9.7 | 0.00 | 0.00 | 0.03 | 71 | 1016.1 |
| 20260506002307 | 16 | 299 | 4.8 | 8.0 | 0.00 | 0.00 | 0.03 | 71 | 1016.0 |
| 20260506001807 | 16 | 310 | 3.2 | 6.4 | 0.00 | 0.00 | 0.03 | 69 | 1016.0 |
| 20260506001308 | 16 | 214 | 0.0 | 1.6 | 0.00 | 0.00 | 0.03 | 68 | 1015.9 |
| 20260506000807 | 16 | 247 | 1.6 | 4.8 | 0.00 | 0.00 | 0.03 | 68 | 1015.9 |
| 20260506000309 | 16 | 218 | 3.2 | 6.4 | 0.00 | 0.00 | 0.03 | 67 | 1015.8 |
| 20260505235808 | 16 | 89 | 0.0 | 3.2 | 0.00 | 0.00 | 0.03 | 66 | 1015.8 |
| 20260505235307 | 16 | 174 | 3.2 | 6.4 | 0.00 | 0.00 | 0.03 | 66 | 1015.8 |
| 20260505234807 | 16 | 146 | 1.6 | 3.2 | 0.00 | 0.00 | 0.03 | 67 | 1015.8 |
| 20260505234308 | 16 | 171 | 3.2 | 8.0 | 0.00 | 0.00 | 0.03 | 67 | 1015.9 |
| 20260505233808 | 16 | 123 | 0.0 | 1.6 | 0.00 | 0.00 | 0.03 | 67 | 1015.9 |
| 20260505233308 | 16 | 212 | 4.8 | 6.4 | 0.00 | 0.00 | 0.03 | 67 | 1015.9 |
| 20260505232808 | 16 | 185 | 1.6 | 3.2 | 0.00 | 0.00 | 0.03 | 66 | 1016.0 |
| 20260505232309 | 16 | 186 | 1.6 | 3.2 | 0.00 | 0.00 | 0.03 | 66 | 1016.0 |
| 20260505231807 | 16 | 186 | 1.6 | 4.8 | 0.00 | 0.00 | 0.03 | 67 | 1016.0 |
| 20260505231308 | 16 | 192 | 3.2 | 4.8 | 0.00 | 0.00 | 0.03 | 66 | 1016.0 |
| 20260505230322 | 16 | 172 | 1.6 | 3.2 | 0.00 | 0.00 | 0.03 | 67 | 1016.0 |
| 20260505225808 | 17 | 250 | 0.0 | 1.6 | 0.00 | 0.00 | 0.03 | 66 | 1016.0 |
| 20260505225308 | 17 | 146 | 1.6 | 6.4 | 0.00 | 0.00 | 0.03 | 66 | 1016.0 |
| 20260505224807 | 17 | 250 | 0.0 | 1.6 | 0.00 | 0.00 | 0.03 | 66 | 1016.0 |
| 20260505224308 | 16 | 286 | 0.0 | 3.2 | 0.00 | 0.00 | 0.03 | 66 | 1016.0 |
| 20260505223807 | 16 | 18 | 0.0 | 1.6 | 0.00 | 0.00 | 0.03 | 68 | 1016.1 |
| 20260505223308 | 16 | 48 | 3.2 | 6.4 | 0.00 | 0.00 | 0.03 | 67 | 1016.1 |
| 20260505222807 | 16 | 53 | 4.8 | 6.4 | 0.00 | 0.00 | 0.03 | 68 | 1016.2 |